sensor_id;sensor_type;location;lat;lon;timestamp;pressure;altitude;pressure_sealevel;temperature;humidity
74437;BME280;62868;52.360;30.424;2023-09-30T00:00:30;1032.1;;;13.2;60.4
74437;BME280;62868;52.360;30.424;2023-09-30T00:05:40;1032.1;;;13.2;60.5
74437;BME280;62868;52.360;30.424;2023-09-30T00:11:02;1032.1;;;13.2;60.5
74437;BME280;62868;52.360;30.424;2023-09-30T00:15:40;1032.1;;;13.1;60.7
74437;BME280;62868;52.360;30.424;2023-09-30T00:20:24;1032;;;13.1;60.8
74437;BME280;62868;52.360;30.424;2023-09-30T00:25:18;1032;;;13;60.9
74437;BME280;62868;52.360;30.424;2023-09-30T00:30:54;1032;;;13;60.9
74437;BME280;62868;52.360;30.424;2023-09-30T00:36:05;1032;;;12.9;61
74437;BME280;62868;52.360;30.424;2023-09-30T00:40:54;1031.9;;;12.9;61.1
74437;BME280;62868;52.360;30.424;2023-09-30T00:46:04;1031.9;;;12.9;61
74437;BME280;62868;52.360;30.424;2023-09-30T00:50:30;1032;;;12.8;61
74437;BME280;62868;52.360;30.424;2023-09-30T00:55:40;1031.9;;;12.8;61.1
74437;BME280;62868;52.360;30.424;2023-09-30T01:01:02;1031.9;;;12.8;61
74437;BME280;62868;52.360;30.424;2023-09-30T01:05:24;1031.9;;;12.7;61.1
74437;BME280;62868;52.360;30.424;2023-09-30T01:10:48;1031.9;;;12.7;61.2
74437;BME280;62868;52.360;30.424;2023-09-30T01:15:24;1031.9;;;12.7;61.2
74437;BME280;62868;52.360;30.424;2023-09-30T01:20:54;1031.8;;;12.6;61.3
74437;BME280;62868;52.360;30.424;2023-09-30T01:26:02;1031.8;;;12.6;61.4
74437;BME280;62868;52.360;30.424;2023-09-30T01:30:52;1031.8;;;12.6;61.4
74437;BME280;62868;52.360;30.424;2023-09-30T01:35:48;1031.7;;;12.5;61.4
74437;BME280;62868;52.360;30.424;2023-09-30T01:40:18;1031.7;;;12.5;61.5
74437;BME280;62868;52.360;30.424;2023-09-30T01:45:34;1031.6;;;12.4;61.6
74437;BME280;62868;52.360;30.424;2023-09-30T01:51:02;1031.6;;;12.4;61.6
74437;BME280;62868;52.360;30.424;2023-09-30T01:55:46;1031.6;;;12.4;61.7
74437;BME280;62868;52.360;30.424;2023-09-30T02:00:48;1031.6;;;12.4;61.7
74437;BME280;62868;52.360;30.424;2023-09-30T02:05:18;1031.6;;;12.3;61.7
74437;BME280;62868;52.360;30.424;2023-09-30T02:10:46;1031.6;;;12.3;61.7
74437;BME280;62868;52.360;30.424;2023-09-30T02:16:02;1031.5;;;12.3;61.8
74437;BME280;62868;52.360;30.424;2023-09-30T02:20:54;1031.5;;;12.3;61.8
74437;BME280;62868;52.360;30.424;2023-09-30T02:25:48;1031.5;;;12.2;61.9
74437;BME280;62868;52.360;30.424;2023-09-30T02:30:30;1031.5;;;12.2;62
74437;BME280;62868;52.360;30.424;2023-09-30T02:35:30;1031.5;;;12.1;62
74437;BME280;62868;52.360;30.424;2023-09-30T02:41:02;1031.4;;;12.1;62
74437;BME280;62868;52.360;30.424;2023-09-30T02:45:18;1031.3;;;12.1;61.9
74437;BME280;62868;52.360;30.424;2023-09-30T02:50:41;1031.3;;;12.1;62
74437;BME280;62868;52.360;30.424;2023-09-30T02:55:18;1031.3;;;12;62
74437;BME280;62868;52.360;30.424;2023-09-30T03:00:36;1031.3;;;11.9;62
74437;BME280;62868;52.360;30.424;2023-09-30T03:06:02;1031.2;;;11.9;62.2
74437;BME280;62868;52.360;30.424;2023-09-30T03:11:02;1031.2;;;11.9;62.2
74437;BME280;62868;52.360;30.424;2023-09-30T03:15:49;1031.2;;;11.9;62.3
74437;BME280;62868;52.360;30.424;2023-09-30T03:21:02;1031.2;;;11.8;62.3
74437;BME280;62868;52.360;30.424;2023-09-30T03:25:34;1031.1;;;11.8;62.3
74437;BME280;62868;52.360;30.424;2023-09-30T03:30:48;1031.2;;;11.8;62.3
74437;BME280;62868;52.360;30.424;2023-09-30T03:35:28;1031.1;;;11.8;62.4
74437;BME280;62868;52.360;30.424;2023-09-30T03:40:18;1031.1;;;11.8;62.4
74437;BME280;62868;52.360;30.424;2023-09-30T03:45:18;1031.1;;;11.7;62.4
74437;BME280;62868;52.360;30.424;2023-09-30T03:50:18;1031.1;;;11.7;62.5
74437;BME280;62868;52.360;30.424;2023-09-30T03:56:02;1031;;;11.7;62.5
74437;BME280;62868;52.360;30.424;2023-09-30T04:01:02;1031;;;11.7;62.5
74437;BME280;62868;52.360;30.424;2023-09-30T04:05:48;1031;;;11.7;62.5
74437;BME280;62868;52.360;30.424;2023-09-30T04:11:02;1031;;;11.8;62.4
74437;BME280;62868;52.360;30.424;2023-09-30T04:15:18;1031;;;11.8;62.3
74437;BME280;62868;52.360;30.424;2023-09-30T04:20:48;1031;;;11.9;62.3
74437;BME280;62868;52.360;30.424;2023-09-30T04:25:18;1031;;;11.9;62.3
74437;BME280;62868;52.360;30.424;2023-09-30T04:30:18;1031;;;12;62.2
74437;BME280;62868;52.360;30.424;2023-09-30T04:35:24;1030.9;;;12.2;62.1
74437;BME280;62868;52.360;30.424;2023-09-30T04:40:24;1030.9;;;12.5;61.9
74437;BME280;62868;52.360;30.424;2023-09-30T04:46:02;1030.9;;;12.8;61.6
74437;BME280;62868;52.360;30.424;2023-09-30T04:51:05;1030.9;;;13.2;61.4
74437;BME280;62868;52.360;30.424;2023-09-30T04:55:48;1030.8;;;13.5;61.1
74437;BME280;62868;52.360;30.424;2023-09-30T05:01:00;1030.8;;;13.9;60.9
74437;BME280;62868;52.360;30.424;2023-09-30T05:05:52;1030.8;;;14.1;60.7
74437;BME280;62868;52.360;30.424;2023-09-30T05:10:42;1030.8;;;14.5;60.4
74437;BME280;62868;52.360;30.424;2023-09-30T05:15:34;1030.7;;;14.9;60.1
74437;BME280;62868;52.360;30.424;2023-09-30T05:20:34;1030.7;;;15.2;59.7
74437;BME280;62868;52.360;30.424;2023-09-30T05:25:18;1030.7;;;15.7;59.4
74437;BME280;62868;52.360;30.424;2023-09-30T05:30:35;1030.7;;;16;59
74437;BME280;62868;52.360;30.424;2023-09-30T05:35:44;1030.7;;;16.4;58.6
74437;BME280;62868;52.360;30.424;2023-09-30T05:41:00;1030.6;;;16.7;58.2
74437;BME280;62868;52.360;30.424;2023-09-30T05:45:48;1030.6;;;17;57.8
74437;BME280;62868;52.360;30.424;2023-09-30T05:51:02;1030.6;;;17.5;57.3
74437;BME280;62868;52.360;30.424;2023-09-30T05:55:40;1030.6;;;17.9;56.7
74437;BME280;62868;52.360;30.424;2023-09-30T06:00:48;1030.6;;;18.2;56.4
74437;BME280;62868;52.360;30.424;2023-09-30T06:05:18;1030.5;;;18.5;56.1
74437;BME280;62868;52.360;30.424;2023-09-30T06:10:24;1030.5;;;18.9;55.6
74437;BME280;62868;52.360;30.424;2023-09-30T06:15:18;1030.5;;;19.2;55.1
74437;BME280;62868;52.360;30.424;2023-09-30T06:20:34;1030.5;;;19.5;54.7
74437;BME280;62868;52.360;30.424;2023-09-30T06:26:00;1030.5;;;19.7;54.6
74437;BME280;62868;52.360;30.424;2023-09-30T06:31:02;1030.5;;;20.1;54
74437;BME280;62868;52.360;30.424;2023-09-30T06:35:48;1030.5;;;20.7;53.5
74437;BME280;62868;52.360;30.424;2023-09-30T06:40:38;1030.4;;;21;53
74437;BME280;62868;52.360;30.424;2023-09-30T06:45:40;1030.4;;;21.4;52.6
74437;BME280;62868;52.360;30.424;2023-09-30T06:50:49;1030.4;;;21.7;52.2
74437;BME280;62868;52.360;30.424;2023-09-30T06:55:24;1030.4;;;21.9;51.8
74437;BME280;62868;52.360;30.424;2023-09-30T07:00:18;1030.3;;;22.1;51.3
74437;BME280;62868;52.360;30.424;2023-09-30T07:05:45;1030.3;;;22.5;50.9
74437;BME280;62868;52.360;30.424;2023-09-30T07:10:24;1030.3;;;22.9;50.3
74437;BME280;62868;52.360;30.424;2023-09-30T07:15:44;1030.2;;;23.3;49.7
74437;BME280;62868;52.360;30.424;2023-09-30T07:20:32;1030.2;;;23.8;49.1
74437;BME280;62868;52.360;30.424;2023-09-30T07:26:02;1030.3;;;24.3;48.4
74437;BME280;62868;52.360;30.424;2023-09-30T07:31:02;1030.2;;;24.8;47.9
74437;BME280;62868;52.360;30.424;2023-09-30T07:36:03;1030.2;;;25.2;47.4
74437;BME280;62868;52.360;30.424;2023-09-30T07:41:02;1030.2;;;25.5;46.9
74437;BME280;62868;52.360;30.424;2023-09-30T07:45:54;1030.1;;;25.9;46.3
74437;BME280;62868;52.360;30.424;2023-09-30T07:50:40;1030.1;;;26.2;45.6
74437;BME280;62868;52.360;30.424;2023-09-30T07:55:45;1030;;;26.5;45.1
74437;BME280;62868;52.360;30.424;2023-09-30T08:00:36;1030;;;26.9;44.5
74437;BME280;62868;52.360;30.424;2023-09-30T08:05:44;1030;;;27.2;44
74437;BME280;62868;52.360;30.424;2023-09-30T08:10:44;1029.9;;;27.5;43.5
74437;BME280;62868;52.360;30.424;2023-09-30T08:16:03;1029.9;;;27.7;42.9
74437;BME280;62868;52.360;30.424;2023-09-30T08:21:02;1029.9;;;27.9;42.4
74437;BME280;62868;52.360;30.424;2023-09-30T08:25:24;1029.9;;;28;41.8
74437;BME280;62868;52.360;30.424;2023-09-30T08:31:02;1029.8;;;28.1;41.3
74437;BME280;62868;52.360;30.424;2023-09-30T08:35:18;1029.8;;;28.2;41
74437;BME280;62868;52.360;30.424;2023-09-30T08:40:19;1029.8;;;28.5;40.5
74437;BME280;62868;52.360;30.424;2023-09-30T08:45:44;1029.7;;;28.7;40.3
74437;BME280;62868;52.360;30.424;2023-09-30T08:50:43;1029.7;;;28.8;39.6
74437;BME280;62868;52.360;30.424;2023-09-30T08:55:43;1029.6;;;29;39.2
74437;BME280;62868;52.360;30.424;2023-09-30T09:00:39;1029.6;;;29.1;38.8
74437;BME280;62868;52.360;30.424;2023-09-30T09:06:03;1029.5;;;29.3;38.4
74437;BME280;62868;52.360;30.424;2023-09-30T09:11:03;1029.5;;;29.2;38
74437;BME280;62868;52.360;30.424;2023-09-30T09:15:35;1029.5;;;29;37.7
74437;BME280;62868;52.360;30.424;2023-09-30T09:21:07;1029.4;;;29;37.5
74437;BME280;62868;52.360;30.424;2023-09-30T09:25:19;1029.4;;;28.9;37.1
74437;BME280;62868;52.360;30.424;2023-09-30T09:31:03;1029.4;;;28.8;36.8
74437;BME280;62868;52.360;30.424;2023-09-30T09:35:43;1029.4;;;28.8;36.6
74437;BME280;62868;52.360;30.424;2023-09-30T09:40:37;1029.4;;;28.8;36.3
74437;BME280;62868;52.360;30.424;2023-09-30T09:45:43;1029.3;;;29.1;36.1
74437;BME280;62868;52.360;30.424;2023-09-30T09:50:27;1029.2;;;29.3;35.8
74437;BME280;62868;52.360;30.424;2023-09-30T09:56:03;1029.2;;;29.3;35.7
74437;BME280;62868;52.360;30.424;2023-09-30T10:01:03;1029.1;;;29.3;35.4
74437;BME280;62868;52.360;30.424;2023-09-30T10:05:41;1029.1;;;29.4;35.2
74437;BME280;62868;52.360;30.424;2023-09-30T10:11:03;1029;;;29.3;34.8
74437;BME280;62868;52.360;30.424;2023-09-30T10:15:35;1029;;;29.3;34.8
74437;BME280;62868;52.360;30.424;2023-09-30T10:20:19;1028.9;;;29.4;34.4
74437;BME280;62868;52.360;30.424;2023-09-30T10:25:45;1028.8;;;29.4;34.1
74437;BME280;62868;52.360;30.424;2023-09-30T10:30:37;1028.8;;;29.6;34
74437;BME280;62868;52.360;30.424;2023-09-30T10:35:43;1028.7;;;29.6;33.7
74437;BME280;62868;52.360;30.424;2023-09-30T10:40:45;1028.7;;;29.7;33.5
74437;BME280;62868;52.360;30.424;2023-09-30T10:46:03;1028.7;;;29.7;33.3
74437;BME280;62868;52.360;30.424;2023-09-30T10:51:10;1028.6;;;29.6;33.2
74437;BME280;62868;52.360;30.424;2023-09-30T10:55:41;1028.6;;;29.6;33.2
74437;BME280;62868;52.360;30.424;2023-09-30T11:01:03;1028.5;;;29.7;32.9
74437;BME280;62868;52.360;30.424;2023-09-30T11:05:25;1028.4;;;29.7;32.9
74437;BME280;62868;52.360;30.424;2023-09-30T11:10:25;1028.4;;;29.7;32.8
74437;BME280;62868;52.360;30.424;2023-09-30T11:15:45;1028.3;;;29.4;32.7
74437;BME280;62868;52.360;30.424;2023-09-30T11:20:37;1028.3;;;29.3;32.7
74437;BME280;62868;52.360;30.424;2023-09-30T11:25:34;1028.2;;;29.3;32.6
74437;BME280;62868;52.360;30.424;2023-09-30T11:30:53;1028.2;;;29.4;32.6
74437;BME280;62868;52.360;30.424;2023-09-30T11:35:31;1028.2;;;29.3;32.5
74437;BME280;62868;52.360;30.424;2023-09-30T11:41:03;1028.2;;;29.3;32.4
74437;BME280;62868;52.360;30.424;2023-09-30T11:45:43;1028.2;;;29.1;32.4
74437;BME280;62868;52.360;30.424;2023-09-30T11:50:48;1028.1;;;29;32.4
74437;BME280;62868;52.360;30.424;2023-09-30T11:55:19;1028.1;;;28.8;32.1
74437;BME280;62868;52.360;30.424;2023-09-30T12:00:19;1028;;;28.8;32
74437;BME280;62868;52.360;30.424;2023-09-30T12:06:01;1028;;;28.8;32.1
74437;BME280;62868;52.360;30.424;2023-09-30T12:10:19;1028;;;28.8;32.2
74437;BME280;62868;52.360;30.424;2023-09-30T12:15:19;1028;;;28.7;32.1
74437;BME280;62868;52.360;30.424;2023-09-30T12:20:33;1027.9;;;28.6;31.9
74437;BME280;62868;52.360;30.424;2023-09-30T12:25:19;1027.8;;;28.6;31.8
74437;BME280;62868;52.360;30.424;2023-09-30T12:31:03;1027.8;;;28.5;31.8
74437;BME280;62868;52.360;30.424;2023-09-30T12:35:55;1027.7;;;28.4;31.8
74437;BME280;62868;52.360;30.424;2023-09-30T12:40:43;1027.7;;;28.3;31.7
74437;BME280;62868;52.360;30.424;2023-09-30T12:45:19;1027.6;;;28.3;31.6
74437;BME280;62868;52.360;30.424;2023-09-30T12:50:41;1027.6;;;28.2;31.7
74437;BME280;62868;52.360;30.424;2023-09-30T12:56:01;1027.5;;;28.1;31.7
74437;BME280;62868;52.360;30.424;2023-09-30T13:00:19;1027.6;;;28;31.8
74437;BME280;62868;52.360;30.424;2023-09-30T13:05:27;1027.6;;;27.8;31.8
74437;BME280;62868;52.360;30.424;2023-09-30T13:11:03;1027.5;;;27.7;32
74437;BME280;62868;52.360;30.424;2023-09-30T13:15:31;1027.4;;;27.6;32.2
74437;BME280;62868;52.360;30.424;2023-09-30T13:21:03;1027.4;;;27.5;32.4
74437;BME280;62868;52.360;30.424;2023-09-30T13:25:31;1027.3;;;27.4;32.5
74437;BME280;62868;52.360;30.424;2023-09-30T13:30:19;1027.3;;;27.3;32.6
74437;BME280;62868;52.360;30.424;2023-09-30T13:35:19;1027.2;;;27.2;32.7
74437;BME280;62868;52.360;30.424;2023-09-30T13:40:19;1027.2;;;27.1;32.8
74437;BME280;62868;52.360;30.424;2023-09-30T13:46:03;1027.2;;;27;32.9
74437;BME280;62868;52.360;30.424;2023-09-30T13:50:51;1027.1;;;26.9;33.1
74437;BME280;62868;52.360;30.424;2023-09-30T13:55:19;1027.1;;;26.7;33.1
74437;BME280;62868;52.360;30.424;2023-09-30T14:00:46;1027.1;;;26.6;33.2
74437;BME280;62868;52.360;30.424;2023-09-30T14:05:25;1027.1;;;26.5;33.4
74437;BME280;62868;52.360;30.424;2023-09-30T14:11:03;1027;;;26.5;33.5
74437;BME280;62868;52.360;30.424;2023-09-30T14:15:55;1027;;;26.3;33.8
74437;BME280;62868;52.360;30.424;2023-09-30T14:20:41;1026.9;;;26.1;33.8
74437;BME280;62868;52.360;30.424;2023-09-30T14:25:19;1026.8;;;25.8;34
74437;BME280;62868;52.360;30.424;2023-09-30T14:30:19;1026.8;;;25.7;34.1
74437;BME280;62868;52.360;30.424;2023-09-30T14:36:02;1026.8;;;25.5;34.2
74437;BME280;62868;52.360;30.424;2023-09-30T14:40:29;1026.8;;;25.3;34.3
74437;BME280;62868;52.360;30.424;2023-09-30T14:45:31;1026.8;;;25.2;34.4
74437;BME280;62868;52.360;30.424;2023-09-30T14:50:48;1026.8;;;25.1;34.6
74437;BME280;62868;52.360;30.424;2023-09-30T14:55:25;1026.7;;;24.9;34.8
74437;BME280;62868;52.360;30.424;2023-09-30T15:00:43;1026.7;;;24.7;35.1
74437;BME280;62868;52.360;30.424;2023-09-30T15:05:58;1026.7;;;24.5;35.6
74437;BME280;62868;52.360;30.424;2023-09-30T15:10:25;1026.7;;;24.2;36.1
74437;BME280;62868;52.360;30.424;2023-09-30T15:15:25;1026.7;;;23.9;36.7
74437;BME280;62868;52.360;30.424;2023-09-30T15:20:37;1026.7;;;23.6;37.1
74437;BME280;62868;52.360;30.424;2023-09-30T15:26:01;1026.7;;;23.2;37.7
74437;BME280;62868;52.360;30.424;2023-09-30T15:30:29;1026.7;;;22.9;38.1
74437;BME280;62868;52.360;30.424;2023-09-30T15:35:31;1026.7;;;22.5;38.7
74437;BME280;62868;52.360;30.424;2023-09-30T15:40:50;1026.8;;;22.2;39.1
74437;BME280;62868;52.360;30.424;2023-09-30T15:46:03;1026.8;;;21.8;39.7
74437;BME280;62868;52.360;30.424;2023-09-30T15:51:03;1026.8;;;21.5;40.2
74437;BME280;62868;52.360;30.424;2023-09-30T15:55:53;1026.8;;;21.3;40.6
74437;BME280;62868;52.360;30.424;2023-09-30T16:00:25;1026.8;;;21.1;40.9
74437;BME280;62868;52.360;30.424;2023-09-30T16:05:19;1026.8;;;20.9;41.3
74437;BME280;62868;52.360;30.424;2023-09-30T16:10:37;1026.8;;;20.7;41.7
74437;BME280;62868;52.360;30.424;2023-09-30T16:16:01;1026.8;;;20.6;42
74437;BME280;62868;52.360;30.424;2023-09-30T16:20:19;1026.9;;;20.4;42.5
74437;BME280;62868;52.360;30.424;2023-09-30T16:25:19;1026.9;;;20.2;42.9
74437;BME280;62868;52.360;30.424;2023-09-30T16:30:45;1026.9;;;20.1;43.2
74437;BME280;62868;52.360;30.424;2023-09-30T16:36:03;1027;;;19.9;43.7
74437;BME280;62868;52.360;30.424;2023-09-30T16:41:03;1026.9;;;19.8;44
74437;BME280;62868;52.360;30.424;2023-09-30T16:45:58;1026.9;;;19.6;44.4
74437;BME280;62868;52.360;30.424;2023-09-30T16:50:19;1026.8;;;19.5;44.6
74437;BME280;62868;52.360;30.424;2023-09-30T16:55:45;1026.8;;;19.3;45.1
74437;BME280;62868;52.360;30.424;2023-09-30T17:00:37;1026.8;;;19.1;45.4
74437;BME280;62868;52.360;30.424;2023-09-30T17:05:35;1026.8;;;19;45.7
74437;BME280;62868;52.360;30.424;2023-09-30T17:10:37;1026.8;;;18.9;46
74437;BME280;62868;52.360;30.424;2023-09-30T17:15:31;1026.8;;;18.9;46.4
74437;BME280;62868;52.360;30.424;2023-09-30T17:20:40;1026.8;;;18.7;46.8
74437;BME280;62868;52.360;30.424;2023-09-30T17:25:37;1026.8;;;18.7;46.9
74437;BME280;62868;52.360;30.424;2023-09-30T17:31:03;1026.8;;;18.6;47.1
74437;BME280;62868;52.360;30.424;2023-09-30T17:35:58;1026.7;;;18.6;47.3
74437;BME280;62868;52.360;30.424;2023-09-30T17:40:20;1026.7;;;18.5;47.7
74437;BME280;62868;52.360;30.424;2023-09-30T17:45:19;1026.6;;;18.4;48
74437;BME280;62868;52.360;30.424;2023-09-30T17:50:25;1026.6;;;18.4;48.2
74437;BME280;62868;52.360;30.424;2023-09-30T17:56:03;1026.6;;;18.3;48.5
74437;BME280;62868;52.360;30.424;2023-09-30T18:00:19;1026.6;;;18.3;48.8
74437;BME280;62868;52.360;30.424;2023-09-30T18:05:22;1026.6;;;18.2;48.9
74437;BME280;62868;52.360;30.424;2023-09-30T18:10:45;1026.5;;;18.1;49.1
74437;BME280;62868;52.360;30.424;2023-09-30T18:15:55;1026.5;;;17.9;49.4
74437;BME280;62868;52.360;30.424;2023-09-30T18:21:03;1026.6;;;17.8;49.8
74437;BME280;62868;52.360;30.424;2023-09-30T18:25:55;1026.5;;;17.7;49.9
74437;BME280;62868;52.360;30.424;2023-09-30T18:30:19;1026.5;;;17.5;50.2
74437;BME280;62868;52.360;30.424;2023-09-30T18:35:19;1026.5;;;17.4;50.6
74437;BME280;62868;52.360;30.424;2023-09-30T18:40:35;1026.5;;;17.2;50.8
74437;BME280;62868;52.360;30.424;2023-09-30T18:46:06;1026.4;;;17.2;50.9
74437;BME280;62868;52.360;30.424;2023-09-30T18:50:19;1026.5;;;17;51.2
74437;BME280;62868;52.360;30.424;2023-09-30T18:55:25;1026.4;;;17.1;51
74437;BME280;62868;52.360;30.424;2023-09-30T19:00:38;1026.4;;;17.2;50.8
74437;BME280;62868;52.360;30.424;2023-09-30T19:05:55;1026.4;;;17.3;50.9
74437;BME280;62868;52.360;30.424;2023-09-30T19:11:03;1026.4;;;17.3;51
74437;BME280;62868;52.360;30.424;2023-09-30T19:15:43;1026.4;;;17.2;51.3
74437;BME280;62868;52.360;30.424;2023-09-30T19:20:19;1026.3;;;17.1;51.5
74437;BME280;62868;52.360;30.424;2023-09-30T19:25:19;1026.3;;;17;51.6
74437;BME280;62868;52.360;30.424;2023-09-30T19:30:37;1026.3;;;16.9;51.5
74437;BME280;62868;52.360;30.424;2023-09-30T19:36:05;1026.3;;;16.8;51.8
74437;BME280;62868;52.360;30.424;2023-09-30T19:40:25;1026.2;;;16.7;52.1
74437;BME280;62868;52.360;30.424;2023-09-30T19:45:19;1026.2;;;16.6;52.2
74437;BME280;62868;52.360;30.424;2023-09-30T19:50:21;1026.2;;;16.4;52.5
74437;BME280;62868;52.360;30.424;2023-09-30T19:56:03;1026.2;;;16.3;52.7
74437;BME280;62868;52.360;30.424;2023-09-30T20:00:36;1026.2;;;16.2;52.9
74437;BME280;62868;52.360;30.424;2023-09-30T20:05:25;1026.3;;;16.1;53.1
74437;BME280;62868;52.360;30.424;2023-09-30T20:10:25;1026.3;;;16;53.1
74437;BME280;62868;52.360;30.424;2023-09-30T20:15:32;1026.3;;;15.9;53.4
74437;BME280;62868;52.360;30.424;2023-09-30T20:21:03;1026.2;;;15.8;53.5
74437;BME280;62868;52.360;30.424;2023-09-30T20:25:55;1026.2;;;15.7;53.7
74437;BME280;62868;52.360;30.424;2023-09-30T20:30:27;1026.2;;;15.7;53.9
74437;BME280;62868;52.360;30.424;2023-09-30T20:35:19;1026.1;;;15.6;54
74437;BME280;62868;52.360;30.424;2023-09-30T20:40:49;1026.1;;;15.5;54.2
74437;BME280;62868;52.360;30.424;2023-09-30T20:46:03;1026;;;15.5;54.3
74437;BME280;62868;52.360;30.424;2023-09-30T20:50:35;1026;;;15.4;54.4
74437;BME280;62868;52.360;30.424;2023-09-30T20:55:25;1025.9;;;15.4;54.5
74437;BME280;62868;52.360;30.424;2023-09-30T21:00:37;1026;;;15.3;54.8
74437;BME280;62868;52.360;30.424;2023-09-30T21:05:25;1026;;;15.2;54.9
74437;BME280;62868;52.360;30.424;2023-09-30T21:11:03;1026;;;15.2;55.1
74437;BME280;62868;52.360;30.424;2023-09-30T21:15:55;1026;;;15.1;55.2
74437;BME280;62868;52.360;30.424;2023-09-30T21:20:49;1026;;;15.1;55.2
74437;BME280;62868;52.360;30.424;2023-09-30T21:25:25;1026;;;15.1;55.4
74437;BME280;62868;52.360;30.424;2023-09-30T21:30:49;1026;;;15.1;55.3
74437;BME280;62868;52.360;30.424;2023-09-30T21:36:01;1026;;;15;55.5
74437;BME280;62868;52.360;30.424;2023-09-30T21:41:03;1026;;;15;55.5
74437;BME280;62868;52.360;30.424;2023-09-30T21:45:25;1026.2;;;15.1;55.7
74437;BME280;62868;52.360;30.424;2023-09-30T21:50:25;1026.2;;;15.3;55.6
74437;BME280;62868;52.360;30.424;2023-09-30T21:55:31;1026.3;;;15.5;55.5
74437;BME280;62868;52.360;30.424;2023-09-30T22:01:03;1026.3;;;15.6;55.6
74437;BME280;62868;52.360;30.424;2023-09-30T22:06:03;1026.3;;;15.7;55.6
74437;BME280;62868;52.360;30.424;2023-09-30T22:10:50;1026.3;;;15.8;55.5
74437;BME280;62868;52.360;30.424;2023-09-30T22:15:31;1026.3;;;15.9;55.4
74437;BME280;62868;52.360;30.424;2023-09-30T22:20:49;1026.3;;;16;55.5
74437;BME280;62868;52.360;30.424;2023-09-30T22:26:03;1026.3;;;16.1;55.4
74437;BME280;62868;52.360;30.424;2023-09-30T22:30:42;1026.3;;;16.1;55.4
74437;BME280;62868;52.360;30.424;2023-09-30T22:35:19;1026.3;;;16.2;55.5
74437;BME280;62868;52.360;30.424;2023-09-30T22:40:25;1026.3;;;16.1;55.6
74437;BME280;62868;52.360;30.424;2023-09-30T22:45:32;1026.3;;;16.1;55.7
74437;BME280;62868;52.360;30.424;2023-09-30T22:51:03;1026.3;;;16;55.7
74437;BME280;62868;52.360;30.424;2023-09-30T22:55:55;1026.3;;;16;55.8
74437;BME280;62868;52.360;30.424;2023-09-30T23:00:49;1026.3;;;15.9;55.8
74437;BME280;62868;52.360;30.424;2023-09-30T23:05:31;1026.3;;;15.8;56
74437;BME280;62868;52.360;30.424;2023-09-30T23:10:43;1026.3;;;15.8;56.1
74437;BME280;62868;52.360;30.424;2023-09-30T23:16:03;1026.3;;;15.8;56.2
74437;BME280;62868;52.360;30.424;2023-09-30T23:20:25;1026.3;;;15.8;56.3
74437;BME280;62868;52.360;30.424;2023-09-30T23:25:25;1026.4;;;15.8;56.3
74437;BME280;62868;52.360;30.424;2023-09-30T23:31:03;1026.4;;;15.8;56.4
74437;BME280;62868;52.360;30.424;2023-09-30T23:35:25;1026.4;;;15.8;56.4
74437;BME280;62868;52.360;30.424;2023-09-30T23:41:03;1026.4;;;15.8;56.6
74437;BME280;62868;52.360;30.424;2023-09-30T23:45:55;1026.5;;;15.8;56.7
74437;BME280;62868;52.360;30.424;2023-09-30T23:50:49;1026.4;;;15.8;56.9
74437;BME280;62868;52.360;30.424;2023-09-30T23:55:31;1026.4;;;15.8;57.1
